sensor_id;sensor_type;location;lat;lon;timestamp;pressure;altitude;pressure_sealevel;temperature;humidity
69187;BME280;56301;56.864;60.554;2023-05-11T00:00:33;98722.78;;;23.99;36.33
69187;BME280;56301;56.864;60.554;2023-05-11T00:02:56;98718.59;;;23.97;36.00
69187;BME280;56301;56.864;60.554;2023-05-11T00:05:18;98727.06;;;23.94;36.41
69187;BME280;56301;56.864;60.554;2023-05-11T00:07:41;98725.38;;;23.93;36.02
69187;BME280;56301;56.864;60.554;2023-05-11T00:10:03;98727.22;;;23.92;36.22
69187;BME280;56301;56.864;60.554;2023-05-11T00:12:26;98722.50;;;23.94;36.45
69187;BME280;56301;56.864;60.554;2023-05-11T00:14:48;98724.00;;;23.97;36.35
69187;BME280;56301;56.864;60.554;2023-05-11T00:17:11;98715.34;;;24.01;36.20
69187;BME280;56301;56.864;60.554;2023-05-11T00:19:33;98718.34;;;24.07;36.22
69187;BME280;56301;56.864;60.554;2023-05-11T00:21:56;98713.06;;;23.90;36.33
69187;BME280;56301;56.864;60.554;2023-05-11T00:24:18;98723.03;;;23.90;36.28
69187;BME280;56301;56.864;60.554;2023-05-11T00:26:41;98725.06;;;23.88;36.34
69187;BME280;56301;56.864;60.554;2023-05-11T00:29:03;98729.66;;;23.87;36.21
69187;BME280;56301;56.864;60.554;2023-05-11T00:31:26;98724.44;;;23.86;36.37
69187;BME280;56301;56.864;60.554;2023-05-11T00:33:48;98730.47;;;23.88;36.49
69187;BME280;56301;56.864;60.554;2023-05-11T00:36:11;98733.00;;;23.89;36.41
69187;BME280;56301;56.864;60.554;2023-05-11T00:38:33;98734.25;;;24.24;35.67
69187;BME280;56301;56.864;60.554;2023-05-11T00:40:56;98740.88;;;23.99;36.69
69187;BME280;56301;56.864;60.554;2023-05-11T00:43:18;98744.59;;;23.98;36.36
69187;BME280;56301;56.864;60.554;2023-05-11T00:45:40;98747.53;;;23.88;36.16
69187;BME280;56301;56.864;60.554;2023-05-11T00:48:03;98743.50;;;23.84;36.05
69187;BME280;56301;56.864;60.554;2023-05-11T00:50:26;98748.91;;;23.84;35.87
69187;BME280;56301;56.864;60.554;2023-05-11T00:52:49;98752.78;;;23.82;35.94
69187;BME280;56301;56.864;60.554;2023-05-11T00:55:12;98772.03;;;23.87;36.55
69187;BME280;56301;56.864;60.554;2023-05-11T00:57:35;98762.91;;;23.88;36.46
69187;BME280;56301;56.864;60.554;2023-05-11T01:00:02;98778.75;;;23.91;36.38
69187;BME280;56301;56.864;60.554;2023-05-11T01:02:25;98780.78;;;23.89;36.67
69187;BME280;56301;56.864;60.554;2023-05-11T01:04:47;98777.38;;;23.95;36.24
69187;BME280;56301;56.864;60.554;2023-05-11T01:12:07;98783.47;;;23.97;36.81
69187;BME280;56301;56.864;60.554;2023-05-11T01:15:23;98784.13;;;23.99;36.44
69187;BME280;56301;56.864;60.554;2023-05-11T01:17:17;98788.34;;;24.01;36.57
69187;BME280;56301;56.864;60.554;2023-05-11T01:32:48;98791.16;;;24.31;37.13
69187;BME280;56301;56.864;60.554;2023-05-11T01:35:11;98793.94;;;24.23;36.87
69187;BME280;56301;56.864;60.554;2023-05-11T01:37:36;98800.53;;;24.20;35.14
69187;BME280;56301;56.864;60.554;2023-05-11T01:40:02;98803.78;;;24.16;35.25
69187;BME280;56301;56.864;60.554;2023-05-11T01:45:29;98810.50;;;24.20;35.56
69187;BME280;56301;56.864;60.554;2023-05-11T01:47:53;98814.53;;;24.24;34.41
69187;BME280;56301;56.864;60.554;2023-05-11T01:50:17;98823.41;;;24.33;35.54
69187;BME280;56301;56.864;60.554;2023-05-11T01:52:40;98820.88;;;24.62;34.44
69187;BME280;56301;56.864;60.554;2023-05-11T01:55:04;98821.69;;;24.48;35.38
69187;BME280;56301;56.864;60.554;2023-05-11T01:57:27;98827.47;;;24.37;36.58
69187;BME280;56301;56.864;60.554;2023-05-11T01:59:50;98825.47;;;24.31;36.29
69187;BME280;56301;56.864;60.554;2023-05-11T02:02:14;98832.75;;;24.30;35.11
69187;BME280;56301;56.864;60.554;2023-05-11T02:04:37;98829.22;;;24.30;35.25
69187;BME280;56301;56.864;60.554;2023-05-11T02:07:01;98830.22;;;24.29;34.91
69187;BME280;56301;56.864;60.554;2023-05-11T02:09:24;98837.13;;;24.31;36.18
69187;BME280;56301;56.864;60.554;2023-05-11T02:11:49;98841.34;;;24.34;36.56
69187;BME280;56301;56.864;60.554;2023-05-11T02:14:15;98851.47;;;24.40;36.00
69187;BME280;56301;56.864;60.554;2023-05-11T02:16:38;98845.03;;;24.64;35.05
69187;BME280;56301;56.864;60.554;2023-05-11T02:19:02;98848.38;;;24.51;36.07
69187;BME280;56301;56.864;60.554;2023-05-11T02:21:25;98844.34;;;24.39;35.37
69187;BME280;56301;56.864;60.554;2023-05-11T02:23:48;98851.84;;;24.29;35.11
69187;BME280;56301;56.864;60.554;2023-05-11T02:26:11;98852.19;;;24.25;35.60
69187;BME280;56301;56.864;60.554;2023-05-11T02:28:35;98857.78;;;24.24;36.13
69187;BME280;56301;56.864;60.554;2023-05-11T02:30:59;98860.69;;;24.22;36.23
69187;BME280;56301;56.864;60.554;2023-05-11T02:33:24;98859.66;;;24.23;35.82
69187;BME280;56301;56.864;60.554;2023-05-11T02:35:49;98864.03;;;24.24;35.96
69187;BME280;56301;56.864;60.554;2023-05-11T02:38:12;98857.94;;;24.31;36.06
69187;BME280;56301;56.864;60.554;2023-05-11T02:40:41;98864.22;;;24.54;35.90
69187;BME280;56301;56.864;60.554;2023-05-11T02:43:10;98865.16;;;24.38;36.12
69187;BME280;56301;56.864;60.554;2023-05-11T02:45:37;98863.88;;;24.26;35.65
69187;BME280;56301;56.864;60.554;2023-05-11T02:48:06;98867.09;;;24.21;35.88
69187;BME280;56301;56.864;60.554;2023-05-11T02:50:30;98868.31;;;24.19;35.49
69187;BME280;56301;56.864;60.554;2023-05-11T02:52:58;98871.19;;;24.17;35.42
69187;BME280;56301;56.864;60.554;2023-05-11T02:55:21;98873.72;;;24.19;36.43
69187;BME280;56301;56.864;60.554;2023-05-11T02:57:45;98871.66;;;24.21;36.35
69187;BME280;56301;56.864;60.554;2023-05-11T03:00:09;98863.41;;;24.22;36.12
69187;BME280;56301;56.864;60.554;2023-05-11T03:02:32;98874.81;;;24.33;36.63
69187;BME280;56301;56.864;60.554;2023-05-11T03:04:54;98873.06;;;24.48;35.21
69187;BME280;56301;56.864;60.554;2023-05-11T03:07:17;98878.19;;;24.35;36.66
69187;BME280;56301;56.864;60.554;2023-05-11T03:09:39;98873.00;;;24.25;35.67
69187;BME280;56301;56.864;60.554;2023-05-11T03:12:02;98868.97;;;24.21;35.98
69187;BME280;56301;56.864;60.554;2023-05-11T03:14:27;98869.31;;;24.18;35.87
69187;BME280;56301;56.864;60.554;2023-05-11T03:16:50;98876.59;;;24.17;35.78
69187;BME280;56301;56.864;60.554;2023-05-11T03:19:13;98870.81;;;24.20;36.01
69187;BME280;56301;56.864;60.554;2023-05-11T03:21:36;98873.19;;;24.23;36.54
69187;BME280;56301;56.864;60.554;2023-05-11T03:24:00;98872.81;;;24.26;35.90
69187;BME280;56301;56.864;60.554;2023-05-11T03:26:23;98880.38;;;24.39;36.32
69187;BME280;56301;56.864;60.554;2023-05-11T03:28:48;98877.09;;;24.52;35.57
69187;BME280;56301;56.864;60.554;2023-05-11T03:31:14;98880.84;;;24.43;35.55
69187;BME280;56301;56.864;60.554;2023-05-11T03:33:37;98882.25;;;24.31;35.00
69187;BME280;56301;56.864;60.554;2023-05-11T03:36:02;98878.28;;;24.18;35.89
69187;BME280;56301;56.864;60.554;2023-05-11T03:38:27;98873.19;;;24.23;35.93
69187;BME280;56301;56.864;60.554;2023-05-11T03:40:51;98881.00;;;24.18;35.50
69187;BME280;56301;56.864;60.554;2023-05-11T03:43:15;98874.56;;;24.19;35.36
69187;BME280;56301;56.864;60.554;2023-05-11T03:45:40;98876.22;;;24.20;35.57
69187;BME280;56301;56.864;60.554;2023-05-11T03:48:04;98878.09;;;24.20;36.06
69187;BME280;56301;56.864;60.554;2023-05-11T03:50:28;98870.53;;;24.15;35.01
69187;BME280;56301;56.864;60.554;2023-05-11T03:52:50;98878.44;;;24.17;35.80
69187;BME280;56301;56.864;60.554;2023-05-11T03:55:13;98879.13;;;24.19;36.08
69187;BME280;56301;56.864;60.554;2023-05-11T03:57:35;98881.16;;;24.17;35.99
69187;BME280;56301;56.864;60.554;2023-05-11T03:59:58;98879.13;;;24.19;35.78
69187;BME280;56301;56.864;60.554;2023-05-11T04:02:21;98880.00;;;24.11;35.70
69187;BME280;56301;56.864;60.554;2023-05-11T04:04:43;98882.22;;;24.08;35.73
69187;BME280;56301;56.864;60.554;2023-05-11T04:07:06;98876.16;;;24.06;35.66
69187;BME280;56301;56.864;60.554;2023-05-11T04:09:28;98878.34;;;24.02;35.79
69187;BME280;56301;56.864;60.554;2023-05-11T04:11:52;98883.97;;;24.00;35.47
69187;BME280;56301;56.864;60.554;2023-05-11T04:14:14;98884.31;;;23.97;35.26
69187;BME280;56301;56.864;60.554;2023-05-11T04:16:37;98884.47;;;23.96;35.32
69187;BME280;56301;56.864;60.554;2023-05-11T04:19:00;98888.19;;;23.95;35.85
69187;BME280;56301;56.864;60.554;2023-05-11T04:21:23;98886.31;;;23.95;35.89
69187;BME280;56301;56.864;60.554;2023-05-11T04:23:45;98884.47;;;23.96;35.60
69187;BME280;56301;56.864;60.554;2023-05-11T04:26:08;98879.25;;;23.94;35.40
69187;BME280;56301;56.864;60.554;2023-05-11T04:28:30;98884.66;;;23.94;35.32
69187;BME280;56301;56.864;60.554;2023-05-11T04:30:54;98890.88;;;23.95;35.29
69187;BME280;56301;56.864;60.554;2023-05-11T04:33:17;98890.06;;;23.94;35.67
69187;BME280;56301;56.864;60.554;2023-05-11T04:35:39;98886.31;;;23.95;35.52
69187;BME280;56301;56.864;60.554;2023-05-11T04:38:03;98879.06;;;23.96;35.42
69187;BME280;56301;56.864;60.554;2023-05-11T04:40:26;98885.13;;;23.98;35.00
69187;BME280;56301;56.864;60.554;2023-05-11T04:42:49;98882.44;;;23.98;35.40
69187;BME280;56301;56.864;60.554;2023-05-11T04:45:13;98886.81;;;23.99;35.66
69187;BME280;56301;56.864;60.554;2023-05-11T04:47:37;98889.34;;;24.00;35.25
69187;BME280;56301;56.864;60.554;2023-05-11T04:50:01;98882.94;;;24.01;34.78
69187;BME280;56301;56.864;60.554;2023-05-11T04:52:26;98882.94;;;24.01;34.74
69187;BME280;56301;56.864;60.554;2023-05-11T04:54:48;98883.75;;;24.02;35.00
69187;BME280;56301;56.864;60.554;2023-05-11T04:57:12;98886.28;;;24.03;35.44
69187;BME280;56301;56.864;60.554;2023-05-11T04:59:34;98888.00;;;24.05;35.61
69187;BME280;56301;56.864;60.554;2023-05-11T05:01:57;98884.25;;;24.06;35.41
69187;BME280;56301;56.864;60.554;2023-05-11T05:04:20;98882.38;;;24.06;35.38
69187;BME280;56301;56.864;60.554;2023-05-11T05:06:42;98887.63;;;24.08;35.25
69187;BME280;56301;56.864;60.554;2023-05-11T05:09:05;98885.78;;;24.08;35.01
69187;BME280;56301;56.864;60.554;2023-05-11T05:11:27;98885.78;;;24.08;34.77
69187;BME280;56301;56.864;60.554;2023-05-11T05:13:59;98881.19;;;24.09;35.52
69187;BME280;56301;56.864;60.554;2023-05-11T05:16:22;98886.41;;;24.10;35.36
69187;BME280;56301;56.864;60.554;2023-05-11T05:18:45;98892.84;;;24.09;35.08
69187;BME280;56301;56.864;60.554;2023-05-11T05:21:07;98888.97;;;24.12;35.10
69187;BME280;56301;56.864;60.554;2023-05-11T05:23:30;98888.97;;;24.12;35.65
69187;BME280;56301;56.864;60.554;2023-05-11T05:25:53;98891.47;;;24.13;34.86
69187;BME280;56301;56.864;60.554;2023-05-11T05:28:15;98897.38;;;24.17;35.37
69187;BME280;56301;56.864;60.554;2023-05-11T05:30:39;98894.50;;;24.18;35.12
69187;BME280;56301;56.864;60.554;2023-05-11T05:33:01;98883.69;;;24.18;35.73
69187;BME280;56301;56.864;60.554;2023-05-11T05:35:24;98886.03;;;24.21;35.06
69187;BME280;56301;56.864;60.554;2023-05-11T05:37:47;98887.88;;;24.21;35.53
69187;BME280;56301;56.864;60.554;2023-05-11T05:40:09;98892.47;;;24.20;34.79
69187;BME280;56301;56.864;60.554;2023-05-11T05:42:38;98892.94;;;24.24;35.01
69187;BME280;56301;56.864;60.554;2023-05-11T05:45:01;98888.56;;;24.23;35.01
69187;BME280;56301;56.864;60.554;2023-05-11T05:47:24;98892.94;;;24.24;35.12
69187;BME280;56301;56.864;60.554;2023-05-11T05:49:47;98895.47;;;24.25;34.80
69187;BME280;56301;56.864;60.554;2023-05-11T05:52:09;98896.31;;;24.26;34.86
69187;BME280;56301;56.864;60.554;2023-05-11T05:54:32;98898.00;;;24.27;35.21
69187;BME280;56301;56.864;60.554;2023-05-11T05:56:54;98892.59;;;24.27;35.20
69187;BME280;56301;56.864;60.554;2023-05-11T05:59:17;98895.94;;;24.29;35.36
69187;BME280;56301;56.864;60.554;2023-05-11T06:01:39;98899.31;;;24.31;34.99
69187;BME280;56301;56.864;60.554;2023-05-11T06:04:02;98896.44;;;24.33;35.68
69187;BME280;56301;56.864;60.554;2023-05-11T06:06:27;98905.22;;;24.35;35.50
69187;BME280;56301;56.864;60.554;2023-05-11T06:08:50;98908.13;;;24.33;34.85
69187;BME280;56301;56.864;60.554;2023-05-11T06:11:12;98899.81;;;24.35;34.98
69187;BME280;56301;56.864;60.554;2023-05-11T06:13:35;98899.81;;;24.35;35.19
69187;BME280;56301;56.864;60.554;2023-05-11T06:15:57;98896.09;;;24.36;35.16
69187;BME280;56301;56.864;60.554;2023-05-11T06:18:24;98904.19;;;24.36;34.97
69187;BME280;56301;56.864;60.554;2023-05-11T06:20:47;98900.16;;;24.40;34.83
69187;BME280;56301;56.864;60.554;2023-05-11T06:23:11;98898.31;;;24.40;34.24
69187;BME280;56301;56.864;60.554;2023-05-11T06:25:36;98899.97;;;24.41;34.62
69187;BME280;56301;56.864;60.554;2023-05-11T06:27:58;98897.94;;;24.43;34.45
69187;BME280;56301;56.864;60.554;2023-05-11T06:30:21;98898.78;;;24.44;34.67
69187;BME280;56301;56.864;60.554;2023-05-11T06:32:46;98891.31;;;24.46;34.87
69187;BME280;56301;56.864;60.554;2023-05-11T06:35:09;98887.59;;;24.47;34.57
69187;BME280;56301;56.864;60.554;2023-05-11T06:37:32;98884.72;;;24.48;34.09
69187;BME280;56301;56.864;60.554;2023-05-11T06:39:55;98880.63;;;24.53;33.91
69187;BME280;56301;56.864;60.554;2023-05-11T06:42:17;98888.56;;;24.54;34.84
69187;BME280;56301;56.864;60.554;2023-05-11T06:44:40;98893.81;;;24.56;34.32
69187;BME280;56301;56.864;60.554;2023-05-11T06:47:03;98889.88;;;24.58;34.24
69187;BME280;56301;56.864;60.554;2023-05-11T06:49:25;98887.84;;;24.60;34.41
69187;BME280;56301;56.864;60.554;2023-05-11T06:51:48;98891.22;;;24.62;34.39
69187;BME280;56301;56.864;60.554;2023-05-11T06:54:10;98886.47;;;24.64;34.30
69187;BME280;56301;56.864;60.554;2023-05-11T06:56:33;98888.13;;;24.65;34.01
69187;BME280;56301;56.864;60.554;2023-05-11T06:58:55;98886.09;;;24.67;33.79
69187;BME280;56301;56.864;60.554;2023-05-11T07:01:18;98894.91;;;24.69;34.49
69187;BME280;56301;56.864;60.554;2023-05-11T07:03:40;98891.81;;;24.72;33.59
69187;BME280;56301;56.864;60.554;2023-05-11T07:06:03;98889.78;;;24.74;33.62
69187;BME280;56301;56.864;60.554;2023-05-11T07:08:25;98896.88;;;24.76;34.21
69187;BME280;56301;56.864;60.554;2023-05-11T07:10:48;98885.69;;;24.79;33.96
69187;BME280;56301;56.864;60.554;2023-05-11T07:13:11;98880.09;;;24.80;34.12
69187;BME280;56301;56.864;60.554;2023-05-11T07:15:33;98879.91;;;24.82;34.26
69187;BME280;56301;56.864;60.554;2023-05-11T07:17:56;98882.44;;;24.83;34.23
69187;BME280;56301;56.864;60.554;2023-05-11T07:20:18;98884.97;;;24.85;34.25
69187;BME280;56301;56.864;60.554;2023-05-11T07:22:41;98890.19;;;24.86;33.51
69187;BME280;56301;56.864;60.554;2023-05-11T07:25:04;98890.03;;;24.88;33.71
69187;BME280;56301;56.864;60.554;2023-05-11T07:27:27;98892.53;;;24.89;33.79
69187;BME280;56301;56.864;60.554;2023-05-11T07:29:49;98887.78;;;24.91;34.04
69187;BME280;56301;56.864;60.554;2023-05-11T07:32:12;98883.22;;;24.92;33.88
69187;BME280;56301;56.864;60.554;2023-05-11T07:34:35;98883.84;;;24.94;34.05
69187;BME280;56301;56.864;60.554;2023-05-11T07:36:57;98884.53;;;24.96;33.82
69187;BME280;56301;56.864;60.554;2023-05-11T07:39:20;98885.16;;;24.98;33.89
69187;BME280;56301;56.864;60.554;2023-05-11T07:41:43;98879.75;;;24.98;32.79
69187;BME280;56301;56.864;60.554;2023-05-11T07:44:05;98886.88;;;24.99;33.28
69187;BME280;56301;56.864;60.554;2023-05-11T07:46:28;98883.97;;;25.01;33.81
69187;BME280;56301;56.864;60.554;2023-05-11T07:48:51;98889.22;;;25.02;33.68
69187;BME280;56301;56.864;60.554;2023-05-11T07:51:14;98893.59;;;25.03;33.64
69187;BME280;56301;56.864;60.554;2023-05-11T07:53:37;98887.16;;;25.04;33.55
69187;BME280;56301;56.864;60.554;2023-05-11T07:55:59;98897.63;;;25.07;33.44
69187;BME280;56301;56.864;60.554;2023-05-11T07:58:22;98891.19;;;25.08;33.59
69187;BME280;56301;56.864;60.554;2023-05-11T08:00:44;98886.59;;;25.09;33.28
69187;BME280;56301;56.864;60.554;2023-05-11T08:03:07;98886.47;;;25.10;33.14
69187;BME280;56301;56.864;60.554;2023-05-11T08:05:29;98892.72;;;25.11;33.13
69187;BME280;56301;56.864;60.554;2023-05-11T08:07:52;98884.41;;;25.12;33.82
69187;BME280;56301;56.864;60.554;2023-05-11T08:10:14;98900.00;;;25.10;33.21
69187;BME280;56301;56.864;60.554;2023-05-11T08:12:37;98894.91;;;25.07;33.13
69187;BME280;56301;56.864;60.554;2023-05-11T08:14:59;98889.19;;;25.10;32.71
69187;BME280;56301;56.864;60.554;2023-05-11T08:17:22;98886.09;;;25.13;33.16
69187;BME280;56301;56.864;60.554;2023-05-11T08:19:44;98884.25;;;25.14;33.60
69187;BME280;56301;56.864;60.554;2023-05-11T08:22:07;98883.22;;;25.15;33.74
69187;BME280;56301;56.864;60.554;2023-05-11T08:24:31;98887.78;;;25.14;33.63
69187;BME280;56301;56.864;60.554;2023-05-11T08:26:54;98877.63;;;25.08;33.73
69187;BME280;56301;56.864;60.554;2023-05-11T08:29:17;98882.78;;;25.03;33.99
69187;BME280;56301;56.864;60.554;2023-05-11T08:31:39;98878.56;;;25.01;33.30
69187;BME280;56301;56.864;60.554;2023-05-11T08:34:02;98876.41;;;24.96;33.81
69187;BME280;56301;56.864;60.554;2023-05-11T08:36:24;98883.97;;;25.01;33.44
69187;BME280;56301;56.864;60.554;2023-05-11T08:38:47;98871.13;;;25.03;33.51
69187;BME280;56301;56.864;60.554;2023-05-11T08:41:11;98871.75;;;25.05;33.01
69187;BME280;56301;56.864;60.554;2023-05-11T08:43:34;98875.97;;;25.07;33.78
69187;BME280;56301;56.864;60.554;2023-05-11T08:46:02;98876.63;;;25.09;33.62
69187;BME280;56301;56.864;60.554;2023-05-11T08:48:25;98869.19;;;25.11;33.54
69187;BME280;56301;56.864;60.554;2023-05-11T08:50:47;98862.56;;;25.14;33.51
69187;BME280;56301;56.864;60.554;2023-05-11T08:53:10;98871.34;;;25.16;33.79
69187;BME280;56301;56.864;60.554;2023-05-11T08:55:33;98865.91;;;25.16;33.25
69187;BME280;56301;56.864;60.554;2023-05-11T08:57:56;98863.06;;;25.17;33.19
69187;BME280;56301;56.864;60.554;2023-05-11T09:00:19;98864.72;;;25.18;33.50
69187;BME280;56301;56.864;60.554;2023-05-11T09:02:42;98857.44;;;25.19;33.69
69187;BME280;56301;56.864;60.554;2023-05-11T09:05:05;98860.97;;;25.19;33.27
69187;BME280;56301;56.864;60.554;2023-05-11T09:07:28;98857.44;;;25.19;33.36
69187;BME280;56301;56.864;60.554;2023-05-11T09:09:53;98842.13;;;25.11;33.72
69187;BME280;56301;56.864;60.554;2023-05-11T09:12:16;98860.75;;;25.06;33.03
69187;BME280;56301;56.864;60.554;2023-05-11T09:14:38;98863.16;;;25.01;33.69
69187;BME280;56301;56.864;60.554;2023-05-11T09:17:01;98851.03;;;24.97;33.71
69187;BME280;56301;56.864;60.554;2023-05-11T09:19:24;98866.97;;;24.92;33.48
69187;BME280;56301;56.864;60.554;2023-05-11T09:21:47;98859.22;;;24.89;33.77
69187;BME280;56301;56.864;60.554;2023-05-11T09:24:10;98863.97;;;24.87;33.65
69187;BME280;56301;56.864;60.554;2023-05-11T09:26:33;98862.84;;;24.81;33.66
69187;BME280;56301;56.864;60.554;2023-05-11T09:28:58;98867.56;;;24.79;33.70
69187;BME280;56301;56.864;60.554;2023-05-11T09:31:40;98867.09;;;24.76;33.94
69187;BME280;56301;56.864;60.554;2023-05-11T09:36:34;98880.50;;;24.69;33.91
69187;BME280;56301;56.864;60.554;2023-05-11T09:39:00;98865.50;;;24.66;33.99
69187;BME280;56301;56.864;60.554;2023-05-11T09:41:22;98882.91;;;24.64;34.00
69187;BME280;56301;56.864;60.554;2023-05-11T09:43:45;98884.13;;;24.61;34.21
69187;BME280;56301;56.864;60.554;2023-05-11T09:46:08;98884.47;;;24.58;34.29
69187;BME280;56301;56.864;60.554;2023-05-11T09:48:42;98897.34;;;24.56;33.97
69187;BME280;56301;56.864;60.554;2023-05-11T09:51:05;98901.25;;;24.54;33.53
69187;BME280;56301;56.864;60.554;2023-05-11T09:53:34;98898.06;;;24.50;34.03
69187;BME280;56301;56.864;60.554;2023-05-11T09:55:57;98919.06;;;24.48;33.33
69187;BME280;56301;56.864;60.554;2023-05-11T09:58:20;98919.22;;;24.46;33.43
69187;BME280;56301;56.864;60.554;2023-05-11T10:00:49;98920.44;;;24.44;34.23
69187;BME280;56301;56.864;60.554;2023-05-11T10:03:12;98925.16;;;24.42;33.94
69187;BME280;56301;56.864;60.554;2023-05-11T10:05:35;98925.34;;;24.40;33.34
69187;BME280;56301;56.864;60.554;2023-05-11T10:08:01;98922.78;;;24.39;33.21
69187;BME280;56301;56.864;60.554;2023-05-11T10:10:25;98928.53;;;24.36;33.96
69187;BME280;56301;56.864;60.554;2023-05-11T10:12:48;98926.84;;;24.35;33.61
69187;BME280;56301;56.864;60.554;2023-05-11T10:15:10;98927.88;;;24.34;33.52
69187;BME280;56301;56.864;60.554;2023-05-11T10:17:34;98929.25;;;24.30;33.21
69187;BME280;56301;56.864;60.554;2023-05-11T10:19:58;98931.97;;;24.30;33.27
69187;BME280;56301;56.864;60.554;2023-05-11T10:22:21;98934.84;;;24.28;33.40
69187;BME280;56301;56.864;60.554;2023-05-11T10:24:44;98932.31;;;24.26;33.33
69187;BME280;56301;56.864;60.554;2023-05-11T10:27:07;98933.31;;;24.25;33.59
69187;BME280;56301;56.864;60.554;2023-05-11T10:29:32;98932.47;;;24.25;33.67
69187;BME280;56301;56.864;60.554;2023-05-11T10:31:56;98935.38;;;24.23;33.75
69187;BME280;56301;56.864;60.554;2023-05-11T10:34:19;98931.63;;;24.24;33.40
69187;BME280;56301;56.864;60.554;2023-05-11T10:36:42;98933.31;;;24.25;33.58
69187;BME280;56301;56.864;60.554;2023-05-11T10:39:06;98930.59;;;24.25;34.09
69187;BME280;56301;56.864;60.554;2023-05-11T10:41:32;98925.19;;;24.25;33.54
69187;BME280;56301;56.864;60.554;2023-05-11T10:44:06;98925.38;;;24.24;33.17
69187;BME280;56301;56.864;60.554;2023-05-11T10:46:57;98919.16;;;24.23;33.47
69187;BME280;56301;56.864;60.554;2023-05-11T10:54:32;98904.59;;;24.24;33.23
69187;BME280;56301;56.864;60.554;2023-05-11T11:01:52;98904.59;;;24.24;33.58
69187;BME280;56301;56.864;60.554;2023-05-11T11:04:14;98905.94;;;24.29;34.45
69187;BME280;56301;56.864;60.554;2023-05-11T11:06:39;98898.50;;;24.31;33.65
69187;BME280;56301;56.864;60.554;2023-05-11T11:09:23;98900.16;;;24.32;33.85
69187;BME280;56301;56.864;60.554;2023-05-11T11:11:45;98899.47;;;24.38;34.18
69187;BME280;56301;56.864;60.554;2023-05-11T11:14:08;98899.16;;;24.41;33.40
69187;BME280;56301;56.864;60.554;2023-05-11T11:16:32;98899.97;;;24.41;33.39
69187;BME280;56301;56.864;60.554;2023-05-11T11:21:39;98905.88;;;24.45;33.87
69187;BME280;56301;56.864;60.554;2023-05-11T11:24:02;98900.28;;;24.46;32.89
69187;BME280;56301;56.864;60.554;2023-05-11T11:31:28;98908.53;;;24.53;33.45
69187;BME280;56301;56.864;60.554;2023-05-11T11:33:51;98909.56;;;24.52;33.50
69187;BME280;56301;56.864;60.554;2023-05-11T11:36:14;98911.03;;;24.55;32.99
69187;BME280;56301;56.864;60.554;2023-05-11T11:38:50;98908.16;;;24.56;33.35
69187;BME280;56301;56.864;60.554;2023-05-11T11:41:28;98922.72;;;24.55;33.08
69187;BME280;56301;56.864;60.554;2023-05-11T11:43:51;98919.06;;;24.48;33.11
69187;BME280;56301;56.864;60.554;2023-05-11T11:46:24;98926.13;;;24.49;33.35
69187;BME280;56301;56.864;60.554;2023-05-11T11:48:46;98919.69;;;24.50;33.51
69187;BME280;56301;56.864;60.554;2023-05-11T11:51:10;98925.09;;;24.50;32.78
69187;BME280;56301;56.864;60.554;2023-05-11T11:55:59;98938.63;;;24.50;32.46
69187;BME280;56301;56.864;60.554;2023-05-11T12:01:03;98932.56;;;24.48;32.33
69187;BME280;56301;56.864;60.554;2023-05-11T12:03:26;98923.44;;;24.49;32.22
69187;BME280;56301;56.864;60.554;2023-05-11T12:05:49;98935.09;;;24.49;32.32
69187;BME280;56301;56.864;60.554;2023-05-11T12:08:15;98939.31;;;24.52;32.80
69187;BME280;56301;56.864;60.554;2023-05-11T12:10:38;98934.38;;;24.56;33.13
69187;BME280;56301;56.864;60.554;2023-05-11T12:13:01;98936.91;;;24.57;32.76
69187;BME280;56301;56.864;60.554;2023-05-11T12:15:25;98935.22;;;24.56;32.51
69187;BME280;56301;56.864;60.554;2023-05-11T12:17:48;98943.34;;;24.56;32.16
69187;BME280;56301;56.864;60.554;2023-05-11T12:20:13;98942.66;;;24.54;32.55
69187;BME280;56301;56.864;60.554;2023-05-11T12:22:36;98950.97;;;24.53;33.01
69187;BME280;56301;56.864;60.554;2023-05-11T12:24:58;98946.03;;;24.56;33.10
69187;BME280;56301;56.864;60.554;2023-05-11T12:27:26;98950.13;;;24.52;32.91
69187;BME280;56301;56.864;60.554;2023-05-11T12:29:49;98946.19;;;24.55;33.23
69187;BME280;56301;56.864;60.554;2023-05-11T12:32:11;98940.78;;;24.55;33.03
69187;BME280;56301;56.864;60.554;2023-05-11T12:34:34;98935.56;;;24.53;33.10
69187;BME280;56301;56.864;60.554;2023-05-11T12:36:56;98946.41;;;24.53;33.00
69187;BME280;56301;56.864;60.554;2023-05-11T12:41:42;98946.25;;;24.46;32.88
69187;BME280;56301;56.864;60.554;2023-05-11T12:44:05;98956.09;;;24.47;33.08
69187;BME280;56301;56.864;60.554;2023-05-11T12:46:27;98956.09;;;24.47;33.07
69187;BME280;56301;56.864;60.554;2023-05-11T12:48:50;98950.47;;;24.49;32.92
69187;BME280;56301;56.864;60.554;2023-05-11T12:51:13;98959.63;;;24.48;33.21
69187;BME280;56301;56.864;60.554;2023-05-11T12:53:35;98952.50;;;24.47;33.40
69187;BME280;56301;56.864;60.554;2023-05-11T12:55:58;98963.31;;;24.47;33.02
69187;BME280;56301;56.864;60.554;2023-05-11T12:58:20;98968.03;;;24.53;33.69
69187;BME280;56301;56.864;60.554;2023-05-11T13:00:53;98968.38;;;24.50;32.77
69187;BME280;56301;56.864;60.554;2023-05-11T13:03:20;98974.13;;;24.55;33.94
69187;BME280;56301;56.864;60.554;2023-05-11T13:05:42;98965.63;;;24.58;33.53
69187;BME280;56301;56.864;60.554;2023-05-11T13:08:05;98966.31;;;24.60;33.37
69187;BME280;56301;56.864;60.554;2023-05-11T13:10:28;98965.13;;;24.63;33.60
69187;BME280;56301;56.864;60.554;2023-05-11T13:12:51;98972.00;;;24.65;33.28
69187;BME280;56301;56.864;60.554;2023-05-11T13:15:13;98969.78;;;24.69;33.49
69187;BME280;56301;56.864;60.554;2023-05-11T13:17:36;98979.97;;;24.67;33.50
69187;BME280;56301;56.864;60.554;2023-05-11T13:22:37;98977.63;;;24.64;33.66